Kerteh Airport
WMKE : now visible

Airfield :











YOU CAN JOIN US ON...

 
LOGIN :

Register | Disclaimer

   EN    FR    IT 

 









Legend :    VFR   Marginal VFR   IFR   Intensive IFR   Very Intensive IFR
Visi :
Ceiling :
>= 8 km
>= 3000ft
5 to 8 km
1000 to 3000 ft
1500m to 5 km
500 to 1000 ft
800 to 1500m
200 to 500 ft
< 800m
< 200 ft
Symbols :   Thunderstorms  Fog  Heavy snow  Heavy precipitations  Wind > 20 kt






- Airport Elevation : 18 ft
- IATA code : KTE


WMKE - Kerteh

CURRENT METAR :
  • 191200Z AUTO 06005KT 330V120 //// // ////// 28/24 Q1009

EXPIRED METARs :
  • 191100Z VRB02KT 9999 SCT014 28/25 Q1009
  • 191000Z 04004KT 340V120 9999 SCT014 29/24 Q1008

TAF TAF WMKE
Valid from the 19 at 12:00 until the 20 at 12:00 UTC


191100Z 1912/2012 VRB03KT 9999 FEW015
TEMPO 2005/2010 5000 RA FEW005 SCT022



MET'MAP, your aeronautical weather chart ! - Copyright ORBIFLY December 2007 - Disclaimer

ORBIFLY MET'MAP TEAM :

Programming & Development : Alexandra Zaïnal
Concept & Development : Baudouin d'Aumeries
Co-Development & Prog : Marc-Olivier Méhu
Technical & hardware support : Manuel Goepfert

Contact : metmap@orbifly.com




SOURCES & CREDITS :

   NOAA       Earth
Advisory